QTR56V CYYZ-OTHH
Flight info
| Callsign | QTR56V |
|---|---|
| Flight time | N/A |
| Altitude | 31000 |
| Route | VERDO7 IPTOS DCT KEMVI Q852 KANUR Q806 SAVEX DCT MIILS N285B NICSO/M084F330 NATS BEXET/N0481F350 DCT MORAG DCT NUCHU L607 BIG L15 MOTOX DCT RUCAC DCT LESDO DCT ETINO DCT LUPEN DCT BATUB DCT MOMUK DCT GEDSO DCT VEKEN DCT NEMEK DCT AKIKA DCT MAVAR DCT BITLA DCT KEA/N0484F370 DCT PAXIS Y707 OBRAN L321 REXUM M872 BDB Y214 RAPMA/N0519F290 Y214 ASPUS Y432 LADBO T142 LAEEB |
| Aircraft | B77W/H-SDE1E2E3FGHIJ2J3J4J5M1RWXY/LB1D1 |
Departure
| Time | 2026-05-04 22:55 |
|---|---|
| Airport | Toronto Pearson International Airport (CYYZ) |
Arrival
| Time | N/A |
|---|---|
| Airport | Hamad International Airport (OTHH) |
| Time | Latitude | Longitude | Altitude | Speed | Heading |
|---|---|---|---|---|---|
| 2026-05-04 22:18 | 43.68308 | -79.62138 | 568 ft | 0 kts | 112° |
| 2026-05-04 22:39 | 43.68314 | -79.62158 | 577 ft | 4 kts | 109° |
| 2026-05-04 22:39 | 43.68323 | -79.62194 | 576 ft | 4 kts | 111° |
| 2026-05-04 22:40 | 43.68334 | -79.62222 | 578 ft | 2 kts | 131° |
| 2026-05-04 22:40 | 43.68352 | -79.62243 | 575 ft | 4 kts | 160° |
| 2026-05-04 22:40 | 43.68374 | -79.62253 | 576 ft | 0 kts | 160° |
| 2026-05-04 22:44 | 43.68373 | -79.62252 | 576 ft | 0 kts | 160° |
| 2026-05-04 22:44 | 43.68372 | -79.62252 | 574 ft | 0 kts | 160° |
| 2026-05-04 22:45 | 43.68361 | -79.62250 | 577 ft | 3 kts | 178° |
| 2026-05-04 22:45 | 43.68306 | -79.62301 | 577 ft | 5 kts | 228° |
| 2026-05-04 22:45 | 43.68291 | -79.62351 | 576 ft | 6 kts | 253° |
| 2026-05-04 22:46 | 43.68276 | -79.62404 | 572 ft | 6 kts | 237° |
| 2026-05-04 22:46 | 43.68247 | -79.62444 | 577 ft | 6 kts | 224° |
| 2026-05-04 22:46 | 43.68215 | -79.62487 | 574 ft | 7 kts | 220° |
| 2026-05-04 22:46 | 43.68167 | -79.62480 | 575 ft | 9 kts | 157° |
| 2026-05-04 22:47 | 43.68098 | -79.62402 | 572 ft | 15 kts | 136° |
| 2026-05-04 22:47 | 43.68021 | -79.62302 | 570 ft | 15 kts | 136° |
| 2026-05-04 22:47 | 43.67945 | -79.62204 | 575 ft | 15 kts | 137° |
| 2026-05-04 22:47 | 43.67853 | -79.62140 | 571 ft | 15 kts | 152° |
| 2026-05-04 22:48 | 43.67774 | -79.62046 | 574 ft | 15 kts | 136° |
| 2026-05-04 22:48 | 43.67698 | -79.61946 | 577 ft | 15 kts | 136° |
| 2026-05-04 22:48 | 43.67622 | -79.61847 | 577 ft | 15 kts | 137° |
| 2026-05-04 22:48 | 43.67545 | -79.61749 | 573 ft | 15 kts | 136° |
| 2026-05-04 22:49 | 43.67470 | -79.61649 | 570 ft | 15 kts | 136° |
| 2026-05-04 22:49 | 43.67394 | -79.61549 | 569 ft | 15 kts | 137° |
| 2026-05-04 22:49 | 43.67317 | -79.61452 | 570 ft | 15 kts | 137° |
| 2026-05-04 22:49 | 43.67242 | -79.61351 | 572 ft | 15 kts | 124° |
| 2026-05-04 22:50 | 43.67260 | -79.61218 | 570 ft | 15 kts | 57° |
| 2026-05-04 22:50 | 43.67323 | -79.61102 | 572 ft | 15 kts | 53° |
| 2026-05-04 22:50 | 43.67385 | -79.60987 | 576 ft | 15 kts | 53° |
| 2026-05-04 22:50 | 43.67448 | -79.60872 | 574 ft | 15 kts | 53° |
| 2026-05-04 22:51 | 43.67518 | -79.60764 | 575 ft | 16 kts | 46° |
| 2026-05-04 22:51 | 43.67594 | -79.60653 | 580 ft | 16 kts | 47° |
| 2026-05-04 22:51 | 43.67670 | -79.60543 | 579 ft | 16 kts | 46° |
| 2026-05-04 22:51 | 43.67746 | -79.60433 | 579 ft | 16 kts | 47° |
| 2026-05-04 22:52 | 43.67821 | -79.60323 | 580 ft | 16 kts | 46° |
| 2026-05-04 22:52 | 43.67897 | -79.60213 | 578 ft | 16 kts | 47° |
| 2026-05-04 22:52 | 43.67973 | -79.60102 | 575 ft | 16 kts | 47° |
| 2026-05-04 22:52 | 43.68047 | -79.59991 | 578 ft | 16 kts | 51° |
| 2026-05-04 22:53 | 43.68066 | -79.59896 | 579 ft | 11 kts | 111° |
| 2026-05-04 22:53 | 43.68022 | -79.59816 | 583 ft | 11 kts | 130° |
| 2026-05-04 22:53 | 43.67970 | -79.59745 | 582 ft | 11 kts | 137° |
| 2026-05-04 22:53 | 43.67903 | -79.59735 | 586 ft | 11 kts | 211° |
| 2026-05-04 22:54 | 43.67851 | -79.59806 | 583 ft | 12 kts | 227° |
| 2026-05-04 22:54 | 43.67715 | -79.60004 | 587 ft | 60 kts | 226° |
| 2026-05-04 22:54 | 43.67234 | -79.60703 | 578 ft | 140 kts | 226° |
| 2026-05-04 22:54 | 43.66394 | -79.61890 | 661 ft | 195 kts | 226° |
| 2026-05-04 22:55 | 43.65494 | -79.63205 | 1017 ft | 180 kts | 226° |
| 2026-05-04 22:55 | 43.64623 | -79.64427 | 1022 ft | 181 kts | 226° |
| 2026-05-04 22:55 | 43.63711 | -79.65762 | 988 ft | 201 kts | 226° |
| 2026-05-04 22:55 | 43.62834 | -79.67097 | 1760 ft | 172 kts | 226° |
| 2026-05-04 22:56 | 43.62006 | -79.68313 | 2048 ft | 178 kts | 225° |
| 2026-05-04 22:56 | 43.61147 | -79.69581 | 2239 ft | 184 kts | 226° |
| 2026-05-04 22:56 | 43.60256 | -79.70882 | 2528 ft | 192 kts | 226° |
| 2026-05-04 22:56 | 43.59292 | -79.72295 | 2707 ft | 213 kts | 226° |
| 2026-05-04 22:57 | 43.58264 | -79.73788 | 3224 ft | 219 kts | 226° |
| 2026-05-04 22:57 | 43.57183 | -79.75312 | 3760 ft | 225 kts | 226° |
| 2026-05-04 22:57 | 43.56070 | -79.76852 | 4427 ft | 228 kts | 226° |
| 2026-05-04 22:57 | 43.54927 | -79.78405 | 5039 ft | 234 kts | 226° |
| 2026-05-04 22:58 | 43.53747 | -79.79980 | 5651 ft | 239 kts | 226° |
| 2026-05-04 22:58 | 43.52490 | -79.81509 | 6201 ft | 245 kts | 213° |
| 2026-05-04 22:58 | 43.50800 | -79.82087 | 6716 ft | 260 kts | 183° |
| 2026-05-04 22:58 | 43.48989 | -79.81592 | 7337 ft | 274 kts | 166° |
| 2026-05-04 22:59 | 43.47285 | -79.80279 | 7876 ft | 290 kts | 146° |
| 2026-05-04 22:59 | 43.45992 | -79.78122 | 8401 ft | 306 kts | 121° |
| 2026-05-04 22:59 | 43.45433 | -79.75256 | 8949 ft | 318 kts | 93° |
| 2026-05-04 22:59 | 43.45722 | -79.72232 | 9508 ft | 322 kts | 71° |
| 2026-05-04 23:00 | 43.46594 | -79.69374 | 9977 ft | 329 kts | 64° |
| 2026-05-04 23:00 | 43.47619 | -79.66462 | 10150 ft | 349 kts | 65° |
| 2026-05-04 23:00 | 43.48662 | -79.63340 | 10311 ft | 369 kts | 65° |
| 2026-05-04 23:00 | 43.49753 | -79.60032 | 10476 ft | 390 kts | 65° |
| 2026-05-04 23:01 | 43.50901 | -79.56554 | 10788 ft | 405 kts | 65° |
| 2026-05-04 23:01 | 43.52086 | -79.52979 | 11301 ft | 414 kts | 65° |
| 2026-05-04 23:01 | 43.53292 | -79.49344 | 11948 ft | 420 kts | 65° |
| 2026-05-04 23:01 | 43.54511 | -79.45674 | 12665 ft | 424 kts | 65° |
| 2026-05-04 23:02 | 43.55750 | -79.41943 | 13331 ft | 430 kts | 65° |
| 2026-05-04 23:02 | 43.56993 | -79.38195 | 14055 ft | 431 kts | 65° |
| 2026-05-04 23:02 | 43.58242 | -79.34423 | 14732 ft | 434 kts | 65° |
| 2026-05-04 23:02 | 43.59496 | -79.30632 | 15362 ft | 438 kts | 65° |
| 2026-05-04 23:03 | 43.60765 | -79.26792 | 15969 ft | 442 kts | 64° |
| 2026-05-04 23:03 | 43.62044 | -79.22913 | 16590 ft | 446 kts | 64° |
| 2026-05-04 23:03 | 43.63333 | -79.19000 | 17222 ft | 450 kts | 64° |
| 2026-05-04 23:03 | 43.64634 | -79.15046 | 17841 ft | 454 kts | 64° |
| 2026-05-04 23:04 | 43.65942 | -79.11062 | 18389 ft | 458 kts | 64° |
| 2026-05-04 23:04 | 43.67260 | -79.07043 | 18933 ft | 461 kts | 64° |
| 2026-05-04 23:04 | 43.68584 | -79.02996 | 19490 ft | 463 kts | 63° |
| 2026-05-04 23:04 | 43.69915 | -78.98925 | 20038 ft | 467 kts | 63° |
| 2026-05-04 23:05 | 43.71255 | -78.94821 | 20536 ft | 471 kts | 63° |
| 2026-05-04 23:05 | 43.72606 | -78.90678 | 21040 ft | 474 kts | 63° |
| 2026-05-04 23:05 | 43.73963 | -78.86507 | 21559 ft | 477 kts | 63° |
| 2026-05-04 23:05 | 43.75330 | -78.82302 | 22079 ft | 481 kts | 63° |
| 2026-05-04 23:06 | 43.76700 | -78.78078 | 22583 ft | 484 kts | 63° |
| 2026-05-04 23:06 | 43.78079 | -78.73877 | 23060 ft | 487 kts | 62° |
| 2026-05-04 23:06 | 43.79055 | -78.71009 | 23355 ft | 489 kts | 61° |
| 2026-05-04 23:06 | 43.80532 | -78.66755 | 23768 ft | 491 kts | 60° |
| 2026-05-04 23:07 | 43.82023 | -78.62495 | 24213 ft | 493 kts | 60° |
| 2026-05-04 23:07 | 43.84006 | -78.56822 | 24767 ft | 495 kts | 60° |
| 2026-05-04 23:07 | 43.85016 | -78.53918 | 25044 ft | 497 kts | 60° |
| 2026-05-04 23:07 | 43.87008 | -78.48160 | 25474 ft | 503 kts | 61° |
| 2026-05-04 23:08 | 43.88516 | -78.43781 | 25863 ft | 505 kts | 61° |
| 2026-05-04 23:08 | 43.89536 | -78.40807 | 26132 ft | 506 kts | 61° |
| 2026-05-04 23:08 | 43.91050 | -78.36386 | 26523 ft | 508 kts | 61° |
| 2026-05-04 23:08 | 43.92565 | -78.31953 | 26896 ft | 510 kts | 61° |
| 2026-05-04 23:09 | 43.94088 | -78.27491 | 27236 ft | 513 kts | 61° |
| 2026-05-04 23:09 | 43.95616 | -78.23009 | 27587 ft | 515 kts | 61° |
| 2026-05-04 23:09 | 43.97149 | -78.18503 | 27908 ft | 517 kts | 61° |
| 2026-05-04 23:09 | 43.98687 | -78.13978 | 28226 ft | 520 kts | 61° |
| 2026-05-04 23:10 | 44.00224 | -78.09448 | 28547 ft | 522 kts | 61° |
| 2026-05-04 23:10 | 44.01756 | -78.04928 | 28781 ft | 525 kts | 61° |
| 2026-05-04 23:10 | 44.03313 | -78.00322 | 29060 ft | 527 kts | 61° |
| 2026-05-04 23:10 | 44.04808 | -77.95896 | 29342 ft | 529 kts | 61° |
| 2026-05-04 23:11 | 44.06363 | -77.91279 | 29792 ft | 525 kts | 61° |
| 2026-05-04 23:11 | 44.07904 | -77.86693 | 30214 ft | 522 kts | 61° |
| 2026-05-04 23:11 | 44.09438 | -77.82119 | 30542 ft | 522 kts | 61° |
| 2026-05-04 23:11 | 44.10980 | -77.77525 | 30634 ft | 526 kts | 61° |
| 2026-05-04 23:12 | 44.14070 | -77.68294 | 30683 ft | 525 kts | 61° |
| 2026-05-04 23:12 | 44.17129 | -77.59118 | 30690 ft | 521 kts | 61° |
| 2026-05-04 23:13 | 44.20388 | -77.50153 | 30684 ft | 516 kts | 54° |
| 2026-05-04 23:13 | 44.24574 | -77.42146 | 30699 ft | 508 kts | 46° |
| 2026-05-04 23:14 | 44.29047 | -77.34493 | 30697 ft | 509 kts | 46° |
| 2026-05-04 23:14 | 44.33509 | -77.26791 | 30691 ft | 511 kts | 46° |
| 2026-05-04 23:15 | 44.37949 | -77.19029 | 30698 ft | 512 kts | 46° |
| 2026-05-04 23:15 | 44.40166 | -77.15132 | 30841 ft | 513 kts | 46° |
| 2026-05-04 23:15 | 44.42382 | -77.11231 | 31119 ft | 512 kts | 46° |
| 2026-05-04 23:16 | 44.44590 | -77.07337 | 31466 ft | 509 kts | 46° |
| 2026-05-04 23:16 | 44.46784 | -77.03464 | 31820 ft | 507 kts | 46° |
| 2026-05-04 23:16 | 44.48896 | -76.99734 | 32105 ft | 506 kts | 46° |
| 2026-05-04 23:16 | 44.51072 | -76.95886 | 32401 ft | 505 kts | 46° |
| 2026-05-04 23:17 | 44.53249 | -76.92033 | 32626 ft | 505 kts | 46° |
| 2026-05-04 23:17 | 44.55436 | -76.88163 | 32673 ft | 508 kts | 46° |
| 2026-05-04 23:17 | 44.59807 | -76.80403 | 32684 ft | 505 kts | 46° |
| 2026-05-04 23:18 | 44.64140 | -76.72682 | 32698 ft | 503 kts | 46° |
| 2026-05-04 23:18 | 44.68478 | -76.64939 | 32696 ft | 505 kts | 46° |
| 2026-05-04 23:19 | 44.72816 | -76.57175 | 32681 ft | 505 kts | 46° |
| 2026-05-04 23:19 | 44.77154 | -76.49388 | 32679 ft | 505 kts | 46° |
| 2026-05-04 23:20 | 44.81486 | -76.41591 | 32674 ft | 506 kts | 46° |
| 2026-05-04 23:20 | 44.85812 | -76.33783 | 32665 ft | 506 kts | 46° |
| 2026-05-04 23:21 | 44.90138 | -76.25958 | 32667 ft | 506 kts | 46° |
| 2026-05-04 23:21 | 44.94093 | -76.17698 | 32666 ft | 513 kts | 55° |
| 2026-05-04 23:22 | 44.97502 | -76.08921 | 32677 ft | 513 kts | 56° |
| 2026-05-04 23:22 | 45.00909 | -76.00079 | 32653 ft | 513 kts | 56° |
| 2026-05-04 23:23 | 45.04285 | -75.91423 | 32658 ft | 511 kts | 55° |
| 2026-05-04 23:23 | 45.07730 | -75.82630 | 32653 ft | 511 kts | 55° |
| 2026-05-04 23:24 | 45.11166 | -75.73831 | 32659 ft | 511 kts | 55° |
| 2026-05-04 23:24 | 45.14594 | -75.65017 | 32652 ft | 511 kts | 56° |
| 2026-05-04 23:25 | 45.18017 | -75.56182 | 32653 ft | 511 kts | 55° |